sensor_id;sensor_type;location;lat;lon;timestamp;pressure;altitude;pressure_sealevel;temperature;humidity
84607;BME280;74838;47.984;7.842;2024-03-02T00:01:34;97360.53;;;5.80;79.11
84607;BME280;74838;47.984;7.842;2024-03-02T00:04:03;97357.06;;;5.75;79.21
84607;BME280;74838;47.984;7.842;2024-03-02T00:06:32;97351.47;;;5.71;79.38
84607;BME280;74838;47.984;7.842;2024-03-02T00:08:58;97352.25;;;5.72;79.64
84607;BME280;74838;47.984;7.842;2024-03-02T00:11:25;97351.22;;;5.73;79.97
84607;BME280;74838;47.984;7.842;2024-03-02T00:13:53;97348.66;;;5.78;78.83
84607;BME280;74838;47.984;7.842;2024-03-02T00:16:19;97351.78;;;5.75;79.03
84607;BME280;74838;47.984;7.842;2024-03-02T00:18:46;97348.56;;;5.73;78.87
84607;BME280;74838;47.984;7.842;2024-03-02T00:21:14;97356.44;;;5.68;78.63
84607;BME280;74838;47.984;7.842;2024-03-02T00:23:45;97348.94;;;5.60;78.88
84607;BME280;74838;47.984;7.842;2024-03-02T00:26:12;97347.63;;;5.57;79.18
84607;BME280;74838;47.984;7.842;2024-03-02T00:28:39;97350.84;;;5.64;78.94
84607;BME280;74838;47.984;7.842;2024-03-02T00:31:10;97351.47;;;5.71;78.92
84607;BME280;74838;47.984;7.842;2024-03-02T00:33:41;97356.19;;;5.69;78.34
84607;BME280;74838;47.984;7.842;2024-03-02T00:36:08;97351.84;;;5.58;78.49
84607;BME280;74838;47.984;7.842;2024-03-02T00:38:44;97354.53;;;5.63;78.72
84607;BME280;74838;47.984;7.842;2024-03-02T00:41:15;97364.28;;;5.63;78.71
84607;BME280;74838;47.984;7.842;2024-03-02T00:43:45;97361.09;;;5.61;78.49
84607;BME280;74838;47.984;7.842;2024-03-02T00:46:16;97363.47;;;5.62;78.77
84607;BME280;74838;47.984;7.842;2024-03-02T00:48:50;97356.38;;;5.63;78.16
84607;BME280;74838;47.984;7.842;2024-03-02T00:51:17;97349.78;;;5.60;78.45
84607;BME280;74838;47.984;7.842;2024-03-02T00:53:45;97361.75;;;5.51;77.96
84607;BME280;74838;47.984;7.842;2024-03-02T00:56:12;97351.75;;;5.48;78.36
84607;BME280;74838;47.984;7.842;2024-03-02T00:58:40;97358.66;;;5.54;78.41
84607;BME280;74838;47.984;7.842;2024-03-02T01:01:08;97353.31;;;5.49;78.40
84607;BME280;74838;47.984;7.842;2024-03-02T01:03:35;97356.41;;;5.41;78.24
84607;BME280;74838;47.984;7.842;2024-03-02T01:06:03;97351.75;;;5.48;78.67
84607;BME280;74838;47.984;7.842;2024-03-02T01:08:29;97345.16;;;5.51;78.77
84607;BME280;74838;47.984;7.842;2024-03-02T01:10:57;97354.25;;;5.38;77.94
84607;BME280;74838;47.984;7.842;2024-03-02T01:13:24;97350.50;;;5.34;78.68
84607;BME280;74838;47.984;7.842;2024-03-02T01:15:54;97357.66;;;5.39;78.81
84607;BME280;74838;47.984;7.842;2024-03-02T01:18:20;97348.97;;;5.38;78.57
84607;BME280;74838;47.984;7.842;2024-03-02T01:20:47;97353.69;;;5.36;78.67
84607;BME280;74838;47.984;7.842;2024-03-02T01:23:17;97345.75;;;5.32;78.75
84607;BME280;74838;47.984;7.842;2024-03-02T01:25:44;97357.84;;;5.33;79.28
84607;BME280;74838;47.984;7.842;2024-03-02T01:28:15;97346.84;;;5.35;79.42
84607;BME280;74838;47.984;7.842;2024-03-02T01:30:42;97342.75;;;5.23;79.05
84607;BME280;74838;47.984;7.842;2024-03-02T01:33:09;97356.03;;;5.33;78.94
84607;BME280;74838;47.984;7.842;2024-03-02T01:35:36;97357.25;;;5.26;79.63
84607;BME280;74838;47.984;7.842;2024-03-02T01:38:03;97359.31;;;5.24;79.57
84607;BME280;74838;47.984;7.842;2024-03-02T01:40:31;97357.41;;;5.19;80.06
84607;BME280;74838;47.984;7.842;2024-03-02T01:42:58;97353.75;;;5.20;80.19
84607;BME280;74838;47.984;7.842;2024-03-02T01:45:26;97353.75;;;5.20;79.73
84607;BME280;74838;47.984;7.842;2024-03-02T01:47:53;97357.72;;;5.23;80.25
84607;BME280;74838;47.984;7.842;2024-03-02T01:50:25;97329.06;;;5.05;80.45
84607;BME280;74838;47.984;7.842;2024-03-02T01:52:54;97354.41;;;5.11;80.21
84607;BME280;74838;47.984;7.842;2024-03-02T01:55:21;97352.34;;;5.13;80.58
84607;BME280;74838;47.984;7.842;2024-03-02T01:57:48;97348.59;;;5.09;80.70
84607;BME280;74838;47.984;7.842;2024-03-02T02:00:16;97347.25;;;5.06;80.95
84607;BME280;74838;47.984;7.842;2024-03-02T02:02:44;97350.44;;;5.08;81.05
84607;BME280;74838;47.984;7.842;2024-03-02T02:05:11;97349.13;;;5.11;81.49
84607;BME280;74838;47.984;7.842;2024-03-02T02:07:38;97335.44;;;5.09;81.23
84607;BME280;74838;47.984;7.842;2024-03-02T02:10:05;97336.56;;;5.13;80.80
84607;BME280;74838;47.984;7.842;2024-03-02T02:12:33;97338.00;;;5.04;81.07
84607;BME280;74838;47.984;7.842;2024-03-02T02:14:59;97333.84;;;5.08;81.49
84607;BME280;74838;47.984;7.842;2024-03-02T02:17:26;97328.22;;;4.99;81.14
84607;BME280;74838;47.984;7.842;2024-03-02T02:19:54;97330.34;;;5.02;81.37
84607;BME280;74838;47.984;7.842;2024-03-02T02:22:22;97317.16;;;4.97;81.43
84607;BME280;74838;47.984;7.842;2024-03-02T02:24:49;97320.31;;;4.99;81.79
84607;BME280;74838;47.984;7.842;2024-03-02T02:27:16;97305.81;;;4.97;81.89
84607;BME280;74838;47.984;7.842;2024-03-02T02:29:42;97311.63;;;5.20;81.71
84607;BME280;74838;47.984;7.842;2024-03-02T02:32:09;97319.78;;;5.19;81.48
84607;BME280;74838;47.984;7.842;2024-03-02T02:34:35;97312.13;;;5.17;81.38
84607;BME280;74838;47.984;7.842;2024-03-02T02:37:02;97310.84;;;5.20;81.39
84607;BME280;74838;47.984;7.842;2024-03-02T02:39:30;97303.44;;;5.17;81.25
84607;BME280;74838;47.984;7.842;2024-03-02T02:41:57;97302.88;;;5.15;81.41
84607;BME280;74838;47.984;7.842;2024-03-02T02:44:23;97308.69;;;5.17;81.05
84607;BME280;74838;47.984;7.842;2024-03-02T02:46:50;97296.47;;;5.06;81.18
84607;BME280;74838;47.984;7.842;2024-03-02T02:49:19;97307.03;;;5.11;81.89
84607;BME280;74838;47.984;7.842;2024-03-02T02:51:46;97294.91;;;5.10;81.46
84607;BME280;74838;47.984;7.842;2024-03-02T02:54:12;97304.38;;;5.06;81.36
84607;BME280;74838;47.984;7.842;2024-03-02T02:56:40;97291.22;;;5.11;81.71
84607;BME280;74838;47.984;7.842;2024-03-02T02:59:07;97296.00;;;5.14;81.32
84607;BME280;74838;47.984;7.842;2024-03-02T03:01:33;97286.03;;;5.16;81.28
84607;BME280;74838;47.984;7.842;2024-03-02T03:04:00;97290.09;;;5.23;81.84
84607;BME280;74838;47.984;7.842;2024-03-02T03:06:27;97288.25;;;5.24;81.94
84607;BME280;74838;47.984;7.842;2024-03-02T03:08:53;97268.53;;;5.05;81.76
84607;BME280;74838;47.984;7.842;2024-03-02T03:11:20;97287.63;;;5.17;82.56
84607;BME280;74838;47.984;7.842;2024-03-02T03:13:49;97279.19;;;5.15;83.02
84607;BME280;74838;47.984;7.842;2024-03-02T03:16:16;97279.91;;;5.10;82.73
84607;BME280;74838;47.984;7.842;2024-03-02T03:18:42;97279.63;;;5.07;83.66
84607;BME280;74838;47.984;7.842;2024-03-02T03:21:09;97278.75;;;5.23;81.85
84607;BME280;74838;47.984;7.842;2024-03-02T03:23:38;97277.16;;;5.22;82.33
84607;BME280;74838;47.984;7.842;2024-03-02T03:26:05;97283.75;;;5.24;81.76
84607;BME280;74838;47.984;7.842;2024-03-02T03:28:31;97283.03;;;5.29;82.93
84607;BME280;74838;47.984;7.842;2024-03-02T03:30:59;97260.38;;;5.28;82.13
84607;BME280;74838;47.984;7.842;2024-03-02T03:33:28;97278.00;;;5.48;82.49
84607;BME280;74838;47.984;7.842;2024-03-02T03:35:54;97272.91;;;5.68;80.01
84607;BME280;74838;47.984;7.842;2024-03-02T03:38:23;97274.47;;;5.64;80.96
84607;BME280;74838;47.984;7.842;2024-03-02T03:40:50;97274.91;;;5.56;81.29
84607;BME280;74838;47.984;7.842;2024-03-02T03:43:16;97277.00;;;5.54;80.35
84607;BME280;74838;47.984;7.842;2024-03-02T03:45:43;97273.81;;;5.52;81.17
84607;BME280;74838;47.984;7.842;2024-03-02T03:48:11;97280.88;;;5.47;81.75
84607;BME280;74838;47.984;7.842;2024-03-02T03:50:38;97276.75;;;5.34;81.62
84607;BME280;74838;47.984;7.842;2024-03-02T03:53:04;97278.78;;;5.28;82.59
84607;BME280;74838;47.984;7.842;2024-03-02T03:55:32;97280.81;;;5.21;81.61
84607;BME280;74838;47.984;7.842;2024-03-02T03:57:59;97281.88;;;5.20;80.87
84607;BME280;74838;47.984;7.842;2024-03-02T04:00:25;97289.97;;;5.13;80.77
84607;BME280;74838;47.984;7.842;2024-03-02T04:02:52;97287.38;;;5.18;81.17
84607;BME280;74838;47.984;7.842;2024-03-02T04:05:20;97296.56;;;5.16;80.29
84607;BME280;74838;47.984;7.842;2024-03-02T04:07:46;97289.66;;;5.10;80.43
84607;BME280;74838;47.984;7.842;2024-03-02T04:10:13;97289.06;;;5.03;80.78
84607;BME280;74838;47.984;7.842;2024-03-02T04:12:43;97297.97;;;5.02;81.15
84607;BME280;74838;47.984;7.842;2024-03-02T04:15:10;97295.03;;;4.98;81.72
84607;BME280;74838;47.984;7.842;2024-03-02T04:17:36;97294.78;;;5.00;81.00
84607;BME280;74838;47.984;7.842;2024-03-02T04:20:07;97302.69;;;5.21;80.35
84607;BME280;74838;47.984;7.842;2024-03-02T04:22:35;97287.09;;;5.15;80.22
84607;BME280;74838;47.984;7.842;2024-03-02T04:25:01;97299.72;;;5.13;80.71
84607;BME280;74838;47.984;7.842;2024-03-02T04:27:30;97289.78;;;4.98;80.89
84607;BME280;74838;47.984;7.842;2024-03-02T04:29:58;97302.28;;;5.08;80.68
84607;BME280;74838;47.984;7.842;2024-03-02T04:32:25;97303.53;;;5.05;81.04
84607;BME280;74838;47.984;7.842;2024-03-02T04:34:52;97308.97;;;4.99;81.13
84607;BME280;74838;47.984;7.842;2024-03-02T04:37:21;97312.81;;;5.08;81.49
84607;BME280;74838;47.984;7.842;2024-03-02T04:39:51;97307.41;;;4.98;81.56
84607;BME280;74838;47.984;7.842;2024-03-02T04:42:18;97311.38;;;5.00;82.14
84607;BME280;74838;47.984;7.842;2024-03-02T04:44:45;97322.44;;;5.02;83.37
84607;BME280;74838;47.984;7.842;2024-03-02T04:47:11;97313.28;;;5.05;82.61
84607;BME280;74838;47.984;7.842;2024-03-02T04:49:40;97316.28;;;5.13;82.37
84607;BME280;74838;47.984;7.842;2024-03-02T04:52:07;97312.25;;;5.27;81.63
84607;BME280;74838;47.984;7.842;2024-03-02T04:54:36;97311.69;;;5.46;80.38
84607;BME280;74838;47.984;7.842;2024-03-02T04:57:24;97306.31;;;5.63;79.38
84607;BME280;74838;47.984;7.842;2024-03-02T04:59:50;97308.22;;;5.67;79.55
84607;BME280;74838;47.984;7.842;2024-03-02T05:02:17;97309.31;;;5.71;81.06
84607;BME280;74838;47.984;7.842;2024-03-02T05:04:44;97309.53;;;5.91;77.65
84607;BME280;74838;47.984;7.842;2024-03-02T05:07:10;97296.75;;;6.40;74.89
84607;BME280;74838;47.984;7.842;2024-03-02T05:09:37;97300.31;;;6.60;74.07
84607;BME280;74838;47.984;7.842;2024-03-02T05:12:04;97299.09;;;6.73;75.15
84607;BME280;74838;47.984;7.842;2024-03-02T05:14:56;97297.25;;;6.73;74.43
84607;BME280;74838;47.984;7.842;2024-03-02T05:17:22;97304.59;;;6.66;74.02
84607;BME280;74838;47.984;7.842;2024-03-02T05:19:49;97301.81;;;6.88;73.03
84607;BME280;74838;47.984;7.842;2024-03-02T05:22:15;97298.25;;;7.08;71.94
84607;BME280;74838;47.984;7.842;2024-03-02T05:24:44;97296.69;;;7.17;71.26
84607;BME280;74838;47.984;7.842;2024-03-02T05:27:11;97288.78;;;7.22;71.40
84607;BME280;74838;47.984;7.842;2024-03-02T05:29:38;97304.94;;;7.31;70.55
84607;BME280;74838;47.984;7.842;2024-03-02T05:32:06;97296.22;;;7.35;70.34
84607;BME280;74838;47.984;7.842;2024-03-02T05:34:33;97297.88;;;7.51;69.47
84607;BME280;74838;47.984;7.842;2024-03-02T05:37:01;97300.00;;;7.64;67.90
84607;BME280;74838;47.984;7.842;2024-03-02T05:39:27;97297.91;;;7.76;67.87
84607;BME280;74838;47.984;7.842;2024-03-02T05:41:54;97299.53;;;7.82;67.88
84607;BME280;74838;47.984;7.842;2024-03-02T05:44:21;97300.03;;;7.79;69.25
84607;BME280;74838;47.984;7.842;2024-03-02T05:46:47;97303.22;;;7.71;68.99
84607;BME280;74838;47.984;7.842;2024-03-02T05:49:18;97304.75;;;7.62;70.33
84607;BME280;74838;47.984;7.842;2024-03-02T05:51:44;97302.13;;;7.62;69.45
84607;BME280;74838;47.984;7.842;2024-03-02T05:54:11;97306.88;;;7.60;71.83
84607;BME280;74838;47.984;7.842;2024-03-02T05:56:37;97300.00;;;7.64;70.03
84607;BME280;74838;47.984;7.842;2024-03-02T05:59:04;97303.97;;;7.61;69.86
84607;BME280;74838;47.984;7.842;2024-03-02T06:01:38;97302.38;;;7.60;69.37
84607;BME280;74838;47.984;7.842;2024-03-02T06:04:07;97302.41;;;7.70;69.29
84607;BME280;74838;47.984;7.842;2024-03-02T06:06:35;97303.47;;;7.69;71.07
84607;BME280;74838;47.984;7.842;2024-03-02T06:09:01;97297.91;;;7.61;73.36
84607;BME280;74838;47.984;7.842;2024-03-02T06:11:30;97297.34;;;7.54;77.20
84607;BME280;74838;47.984;7.842;2024-03-02T06:13:57;97302.06;;;7.47;76.43
84607;BME280;74838;47.984;7.842;2024-03-02T06:16:26;97299.94;;;7.39;76.22
84607;BME280;74838;47.984;7.842;2024-03-02T06:18:53;97292.28;;;7.38;72.29
84607;BME280;74838;47.984;7.842;2024-03-02T06:21:19;97290.72;;;7.46;71.38
84607;BME280;74838;47.984;7.842;2024-03-02T06:23:49;97295.78;;;7.63;72.52
84607;BME280;74838;47.984;7.842;2024-03-02T06:26:16;97287.59;;;7.64;70.33
84607;BME280;74838;47.984;7.842;2024-03-02T06:28:43;97270.94;;;7.64;69.60
84607;BME280;74838;47.984;7.842;2024-03-02T06:31:10;97292.13;;;7.83;69.14
84607;BME280;74838;47.984;7.842;2024-03-02T06:33:37;97278.13;;;7.83;69.86
84607;BME280;74838;47.984;7.842;2024-03-02T06:36:04;97272.31;;;7.86;69.54
84607;BME280;74838;47.984;7.842;2024-03-02T06:38:33;97253.53;;;7.83;68.60
84607;BME280;74838;47.984;7.842;2024-03-02T06:41:01;97278.94;;;7.98;71.07
84607;BME280;74838;47.984;7.842;2024-03-02T06:43:28;97274.16;;;7.95;73.63
84607;BME280;74838;47.984;7.842;2024-03-02T06:45:55;97277.06;;;7.89;73.51
84607;BME280;74838;47.984;7.842;2024-03-02T06:48:23;97283.13;;;7.70;74.26
84607;BME280;74838;47.984;7.842;2024-03-02T06:50:50;97289.13;;;7.55;75.87
84607;BME280;74838;47.984;7.842;2024-03-02T06:53:17;97289.13;;;7.45;76.43
84607;BME280;74838;47.984;7.842;2024-03-02T06:55:47;97284.38;;;7.43;76.99
84607;BME280;74838;47.984;7.842;2024-03-02T06:58:15;97270.81;;;7.24;77.81
84607;BME280;74838;47.984;7.842;2024-03-02T07:00:41;97288.28;;;7.35;77.99
84607;BME280;74838;47.984;7.842;2024-03-02T07:03:11;97289.59;;;7.28;75.39
84607;BME280;74838;47.984;7.842;2024-03-02T07:05:38;97288.06;;;7.42;76.40
84607;BME280;74838;47.984;7.842;2024-03-02T07:08:05;97291.22;;;7.43;77.30
84607;BME280;74838;47.984;7.842;2024-03-02T07:10:32;97281.44;;;7.39;76.51
84607;BME280;74838;47.984;7.842;2024-03-02T07:12:59;97284.66;;;7.46;75.52
84607;BME280;74838;47.984;7.842;2024-03-02T07:15:26;97279.38;;;7.51;77.53
84607;BME280;74838;47.984;7.842;2024-03-02T07:18:12;97294.16;;;7.57;76.12
84607;BME280;74838;47.984;7.842;2024-03-02T07:20:39;97293.13;;;7.58;77.41
84607;BME280;74838;47.984;7.842;2024-03-02T07:23:06;97287.84;;;7.58;76.02
84607;BME280;74838;47.984;7.842;2024-03-02T07:25:32;97287.06;;;7.72;73.53
84607;BME280;74838;47.984;7.842;2024-03-02T07:27:59;97285.78;;;7.80;75.28
84607;BME280;74838;47.984;7.842;2024-03-02T07:30:27;97279.97;;;7.83;74.13
84607;BME280;74838;47.984;7.842;2024-03-02T07:32:53;97283.16;;;8.04;71.75
84607;BME280;74838;47.984;7.842;2024-03-02T07:35:20;97252.75;;;8.02;71.33
84607;BME280;74838;47.984;7.842;2024-03-02T07:37:47;97289.00;;;8.31;70.25
84607;BME280;74838;47.984;7.842;2024-03-02T07:40:14;97277.63;;;8.40;69.33
84607;BME280;74838;47.984;7.842;2024-03-02T07:42:43;97278.41;;;8.66;68.73
84607;BME280;74838;47.984;7.842;2024-03-02T07:45:11;97277.06;;;8.73;68.19
84607;BME280;74838;47.984;7.842;2024-03-02T07:47:39;97281.81;;;8.86;67.84
84607;BME280;74838;47.984;7.842;2024-03-02T07:50:07;97278.31;;;8.90;68.39
84607;BME280;74838;47.984;7.842;2024-03-02T07:52:34;97272.50;;;8.93;68.98
84607;BME280;74838;47.984;7.842;2024-03-02T07:55:01;97279.41;;;8.94;69.56
84607;BME280;74838;47.984;7.842;2024-03-02T07:57:27;97280.16;;;9.05;68.58
84607;BME280;74838;47.984;7.842;2024-03-02T07:59:54;97271.66;;;9.12;67.90
84607;BME280;74838;47.984;7.842;2024-03-02T08:02:20;97260.94;;;9.37;66.03
84607;BME280;74838;47.984;7.842;2024-03-02T08:04:48;97265.38;;;9.51;64.94
84607;BME280;74838;47.984;7.842;2024-03-02T08:07:15;97269.03;;;9.60;64.98
84607;BME280;74838;47.984;7.842;2024-03-02T08:09:42;97266.09;;;9.67;65.33
84607;BME280;74838;47.984;7.842;2024-03-02T08:12:09;97267.34;;;9.79;64.54
84607;BME280;74838;47.984;7.842;2024-03-02T08:14:35;97273.13;;;9.86;64.09
84607;BME280;74838;47.984;7.842;2024-03-02T08:17:02;97273.63;;;9.88;64.47
84607;BME280;74838;47.984;7.842;2024-03-02T08:19:35;97273.88;;;9.96;63.67
84607;BME280;74838;47.984;7.842;2024-03-02T08:22:03;97267.47;;;10.02;63.66
84607;BME280;74838;47.984;7.842;2024-03-02T08:24:30;97260.16;;;10.23;63.39
84607;BME280;74838;47.984;7.842;2024-03-02T08:26:57;97259.94;;;10.47;62.25
84607;BME280;74838;47.984;7.842;2024-03-02T08:29:26;97259.09;;;10.52;61.61
84607;BME280;74838;47.984;7.842;2024-03-02T08:31:53;97263.03;;;10.59;62.00
84607;BME280;74838;47.984;7.842;2024-03-02T08:34:20;97248.09;;;10.63;61.42
84607;BME280;74838;47.984;7.842;2024-03-02T08:36:46;97253.22;;;10.83;61.64
84607;BME280;74838;47.984;7.842;2024-03-02T08:39:14;97252.41;;;10.82;62.18
84607;BME280;74838;47.984;7.842;2024-03-02T08:41:41;97248.00;;;10.73;62.48
84607;BME280;74838;47.984;7.842;2024-03-02T08:44:08;97254.00;;;10.83;61.75
84607;BME280;74838;47.984;7.842;2024-03-02T08:46:35;97254.44;;;10.90;62.22
84607;BME280;74838;47.984;7.842;2024-03-02T08:49:02;97237.16;;;10.93;61.41
84607;BME280;74838;47.984;7.842;2024-03-02T08:51:29;97257.06;;;11.18;60.97
84607;BME280;74838;47.984;7.842;2024-03-02T08:53:56;97255.28;;;11.32;61.09
84607;BME280;74838;47.984;7.842;2024-03-02T08:56:25;97251.97;;;11.45;59.94
84607;BME280;74838;47.984;7.842;2024-03-02T08:58:52;97249.69;;;11.57;60.05
84607;BME280;74838;47.984;7.842;2024-03-02T09:01:19;97240.91;;;11.75;59.36
84607;BME280;74838;47.984;7.842;2024-03-02T09:03:45;97245.66;;;11.78;60.62
84607;BME280;74838;47.984;7.842;2024-03-02T09:06:13;97251.75;;;11.97;58.92
84607;BME280;74838;47.984;7.842;2024-03-02T09:08:42;97248.88;;;12.11;58.50
84607;BME280;74838;47.984;7.842;2024-03-02T09:11:09;97249.78;;;12.20;57.18
84607;BME280;74838;47.984;7.842;2024-03-02T09:13:38;97241.16;;;12.28;57.04
84607;BME280;74838;47.984;7.842;2024-03-02T09:16:05;97243.56;;;12.43;55.61
84607;BME280;74838;47.984;7.842;2024-03-02T09:18:32;97233.19;;;12.42;56.70
84607;BME280;74838;47.984;7.842;2024-03-02T09:20:58;97252.13;;;12.72;54.12
84607;BME280;74838;47.984;7.842;2024-03-02T09:23:25;97244.53;;;12.79;54.27
84607;BME280;74838;47.984;7.842;2024-03-02T09:25:51;97245.44;;;12.87;54.01
84607;BME280;74838;47.984;7.842;2024-03-02T09:28:18;97240.13;;;13.01;52.81
84607;BME280;74838;47.984;7.842;2024-03-02T09:30:46;97239.75;;;13.07;53.02
84607;BME280;74838;47.984;7.842;2024-03-02T09:33:13;97231.41;;;13.22;57.83
84607;BME280;74838;47.984;7.842;2024-03-02T09:35:42;97231.59;;;13.39;54.82
84607;BME280;74838;47.984;7.842;2024-03-02T09:38:11;97233.28;;;13.48;50.86
84607;BME280;74838;47.984;7.842;2024-03-02T09:40:37;97227.84;;;13.53;51.34
84607;BME280;74838;47.984;7.842;2024-03-02T09:43:04;97233.75;;;13.64;50.30
84607;BME280;74838;47.984;7.842;2024-03-02T09:45:31;97224.66;;;13.65;50.88
84607;BME280;74838;47.984;7.842;2024-03-02T09:47:59;97218.94;;;13.58;51.55
84607;BME280;74838;47.984;7.842;2024-03-02T09:50:36;97225.34;;;13.70;49.63
84607;BME280;74838;47.984;7.842;2024-03-02T09:53:03;97218.25;;;13.87;48.72
84607;BME280;74838;47.984;7.842;2024-03-02T09:55:31;97208.94;;;13.98;48.62
84607;BME280;74838;47.984;7.842;2024-03-02T09:57:57;97202.41;;;14.04;48.76
84607;BME280;74838;47.984;7.842;2024-03-02T10:00:24;97202.75;;;14.11;49.08
84607;BME280;74838;47.984;7.842;2024-03-02T10:02:51;97201.56;;;14.17;49.18
84607;BME280;74838;47.984;7.842;2024-03-02T10:05:28;97193.59;;;14.25;49.46
84607;BME280;74838;47.984;7.842;2024-03-02T10:07:59;97203.88;;;14.32;48.24
84607;BME280;74838;47.984;7.842;2024-03-02T10:10:35;97196.50;;;14.37;49.87
84607;BME280;74838;47.984;7.842;2024-03-02T10:13:08;97194.72;;;14.33;46.41
84607;BME280;74838;47.984;7.842;2024-03-02T10:15:36;97197.16;;;14.43;47.20
84607;BME280;74838;47.984;7.842;2024-03-02T10:18:04;97182.41;;;14.53;47.78
84607;BME280;74838;47.984;7.842;2024-03-02T10:20:32;97180.59;;;14.62;50.10
84607;BME280;74838;47.984;7.842;2024-03-02T10:23:11;97179.66;;;14.67;48.75
84607;BME280;74838;47.984;7.842;2024-03-02T10:25:38;97193.72;;;14.72;46.76
84607;BME280;74838;47.984;7.842;2024-03-02T10:28:05;97186.34;;;14.78;47.01
84607;BME280;74838;47.984;7.842;2024-03-02T10:30:32;97184.31;;;14.83;46.92
84607;BME280;74838;47.984;7.842;2024-03-02T10:33:00;97177.22;;;14.87;45.99
84607;BME280;74838;47.984;7.842;2024-03-02T10:35:27;97181.22;;;14.98;47.01
84607;BME280;74838;47.984;7.842;2024-03-02T10:37:55;97180.44;;;15.06;46.17
84607;BME280;74838;47.984;7.842;2024-03-02T10:40:22;97167.88;;;15.06;44.95
84607;BME280;74838;47.984;7.842;2024-03-02T10:42:49;97173.56;;;15.13;45.93
84607;BME280;74838;47.984;7.842;2024-03-02T10:45:16;97166.63;;;15.12;44.86
84607;BME280;74838;47.984;7.842;2024-03-02T10:47:44;97174.06;;;15.24;44.50
84607;BME280;74838;47.984;7.842;2024-03-02T10:50:13;97172.19;;;15.33;42.98
84607;BME280;74838;47.984;7.842;2024-03-02T10:52:40;97156.00;;;15.37;44.04
84607;BME280;74838;47.984;7.842;2024-03-02T10:55:10;97167.84;;;15.45;44.63
84607;BME280;74838;47.984;7.842;2024-03-02T10:57:42;97152.06;;;15.35;43.36
84607;BME280;74838;47.984;7.842;2024-03-02T11:00:12;97159.16;;;15.56;43.61
84607;BME280;74838;47.984;7.842;2024-03-02T11:02:42;97152.72;;;15.57;43.64
84607;BME280;74838;47.984;7.842;2024-03-02T11:05:20;97151.44;;;15.63;43.30
84607;BME280;74838;47.984;7.842;2024-03-02T11:07:51;97155.09;;;15.76;44.04
84607;BME280;74838;47.984;7.842;2024-03-02T11:10:23;97153.34;;;15.79;43.34
84607;BME280;74838;47.984;7.842;2024-03-02T11:12:56;97156.81;;;15.80;43.67
84607;BME280;74838;47.984;7.842;2024-03-02T11:15:29;97150.34;;;15.81;43.42
84607;BME280;74838;47.984;7.842;2024-03-02T11:17:59;97146.75;;;15.77;43.60
84607;BME280;74838;47.984;7.842;2024-03-02T11:20:26;97141.06;;;15.87;42.82
84607;BME280;74838;47.984;7.842;2024-03-02T11:22:55;97146.06;;;15.97;42.82
84607;BME280;74838;47.984;7.842;2024-03-02T11:25:27;97136.47;;;15.96;42.77
84607;BME280;74838;47.984;7.842;2024-03-02T11:28:01;97139.78;;;15.93;43.13
84607;BME280;74838;47.984;7.842;2024-03-02T11:30:51;97129.84;;;16.02;42.95
84607;BME280;74838;47.984;7.842;2024-03-02T11:33:24;97134.09;;;16.03;43.36
84607;BME280;74838;47.984;7.842;2024-03-02T11:35:52;97121.78;;;16.10;43.00
84607;BME280;74838;47.984;7.842;2024-03-02T11:38:19;97125.44;;;15.97;43.25
84607;BME280;74838;47.984;7.842;2024-03-02T11:40:47;97117.25;;;16.02;43.01
84607;BME280;74838;47.984;7.842;2024-03-02T11:43:14;97109.34;;;16.14;42.62
84607;BME280;74838;47.984;7.842;2024-03-02T11:45:43;97114.53;;;16.19;42.64
84607;BME280;74838;47.984;7.842;2024-03-02T11:48:11;97112.66;;;16.19;43.25
84607;BME280;74838;47.984;7.842;2024-03-02T11:50:41;97107.13;;;16.24;42.92
84607;BME280;74838;47.984;7.842;2024-03-02T11:53:09;97098.75;;;16.17;42.19
84607;BME280;74838;47.984;7.842;2024-03-02T11:55:38;97079.22;;;16.00;42.83
84607;BME280;74838;47.984;7.842;2024-03-02T11:58:07;97095.13;;;16.14;41.73
84607;BME280;74838;47.984;7.842;2024-03-02T12:00:36;97094.50;;;16.08;41.85
84607;BME280;74838;47.984;7.842;2024-03-02T12:03:04;97087.25;;;16.00;43.27
84607;BME280;74838;47.984;7.842;2024-03-02T12:05:34;97083.22;;;15.86;42.95
84607;BME280;74838;47.984;7.842;2024-03-02T12:08:02;97077.84;;;15.94;42.27
84607;BME280;74838;47.984;7.842;2024-03-02T12:10:29;97075.94;;;15.95;42.32
84607;BME280;74838;47.984;7.842;2024-03-02T12:12:56;97073.09;;;16.00;42.24
84607;BME280;74838;47.984;7.842;2024-03-02T12:15:26;97073.88;;;15.92;42.03
84607;BME280;74838;47.984;7.842;2024-03-02T12:17:54;97073.56;;;16.02;42.52
84607;BME280;74838;47.984;7.842;2024-03-02T12:20:21;97067.06;;;16.11;42.27
84607;BME280;74838;47.984;7.842;2024-03-02T12:22:50;97059.19;;;16.06;42.20
84607;BME280;74838;47.984;7.842;2024-03-02T12:25:17;97067.69;;;16.08;41.00
84607;BME280;74838;47.984;7.842;2024-03-02T12:27:44;97070.22;;;16.13;40.49
84607;BME280;74838;47.984;7.842;2024-03-02T12:30:12;97058.72;;;16.13;42.35
84607;BME280;74838;47.984;7.842;2024-03-02T12:32:41;97059.03;;;16.11;42.57
84607;BME280;74838;47.984;7.842;2024-03-02T12:35:08;97052.56;;;16.04;39.99
84607;BME280;74838;47.984;7.842;2024-03-02T12:37:43;97045.78;;;16.15;41.68
84607;BME280;74838;47.984;7.842;2024-03-02T12:40:10;97041.34;;;16.18;40.23
84607;BME280;74838;47.984;7.842;2024-03-02T12:42:37;97034.38;;;16.34;39.67
84607;BME280;74838;47.984;7.842;2024-03-02T12:45:05;97034.97;;;16.40;39.20
84607;BME280;74838;47.984;7.842;2024-03-02T12:47:35;97030.84;;;16.42;40.00
84607;BME280;74838;47.984;7.842;2024-03-02T12:50:04;97029.84;;;16.55;37.41
84607;BME280;74838;47.984;7.842;2024-03-02T12:52:33;97036.13;;;16.59;37.13
84607;BME280;74838;47.984;7.842;2024-03-02T12:55:00;97006.34;;;16.52;38.20
84607;BME280;74838;47.984;7.842;2024-03-02T12:57:29;97011.69;;;16.60;37.23
84607;BME280;74838;47.984;7.842;2024-03-02T12:59:59;97014.03;;;16.62;37.46
84607;BME280;74838;47.984;7.842;2024-03-02T13:02:28;97010.25;;;16.63;37.62
84607;BME280;74838;47.984;7.842;2024-03-02T13:04:58;97011.50;;;16.65;36.06
84607;BME280;74838;47.984;7.842;2024-03-02T13:07:26;97006.13;;;16.65;36.06
84607;BME280;74838;47.984;7.842;2024-03-02T13:09:53;97000.31;;;16.63;36.39
84607;BME280;74838;47.984;7.842;2024-03-02T13:12:21;97001.72;;;16.61;36.71